OMRKORSU

Guest
Details From OMRK - RAS AL KHAIMAH INTL
To ORSU - SULAYMANIYAH INTL
Flight Number -
Tags decoded
Created
Modified
Stats Distance 817 nm / 1,513 km
Max Altitude 0 ft / 0 m
Waypoints 4
Social Downloads 4
Likes 0
Share

Download

Looking for another format? Having issues loading an existing format? Contact us
Advertisement - Login to hide

Notes

Requested: OMRK RAV NADIL M557 TUMAK UL602 ITBIT UM860 TAGRU DAVAS SUL ORSU Unmatched points: NADIL M557 UL602 ITBIT UM860 TAGRU DAVAS

Route

OMRK RAV SUL ORSU

ID Type Via Altitude (ft/m) Position (lat/lon) Dist (leg/tot) Name
O OMRK APT - 0 / 0 25.61335 / 55.93883 - / 0 nm RAS AL KHAIMAH INTL
RAV VOR - 0 / 0 25.58843 / 55.94633 1 / 1 nm RAS AL KHAIMAH VOR-DME
SUL VOR - 0 / 0 35.57958 / 45.29007 813 / 815 nm SULAYMANIYAH VOR
O ORSU APT - 0 / 0 35.56086 / 45.31466 1 / 816 nm SULAYMANIYAH INTL

Altitude Profile

Advertisement - Login to hide

Weather


0- 5 10 15 20 25 30 35+ Temperature / °C

Clouds and Precipitation
Forecast for 2020-11-25 00:00 UTC. Updated 4 hours ago

Ground ~20,000 ft ~40,000 ft Winds

OMRK

Details ICAO OMRK (RKT)
Name Ras Al Khaimah International
Region United Arab Emirates
Timezone Asia/Dubai (UTC+4.0)
Stats Elevation 94 ft / 29 m (AMSL)
Location 25.613400° 55.938800°
Runways 1
Magnetic Variation 2.196° E

METAR

OMRK 250100Z 26002KT 9999 FEW040 15/12 Q1015 A2998

Decode

TAF

TAF OMRK 242300Z 2500/2606 10008KT 8000 FEW040 PROB30 2510/2514 02012KT

Decode

Departure Runways

ID Width Length Bearing (true/mag) Surface Threshold Overrun Markings Lighting
16 148 ft / 45 m 12,381 ft / 3,774 m 164.84° / 162.64° ASPHALT 0 ft / 0 m 177 ft / 54 m PREC-APP EDGE THRESHOLD SALS
34 148 ft / 45 m 12,381 ft / 3,774 m 344.84° / 342.64° ASPHALT 0 ft / 0 m 174 ft / 53 m PREC-APP EDGE THRESHOLD ALSF-I

ORSU

Details ICAO ORSU (ISU)
Name SULAYMANIYAH INTL
Region Iraq
Timezone Asia/Baghdad (UTC+3.0)
Stats Elevation 2,494 ft / 760 m (AMSL)
Location 35.560900° 45.314700°
Runways 1
Magnetic Variation 5.237° E

METAR

ORSU 250100Z 30003KT CAVOK 02/02 Q1019

Decode

TAF

TAF ORSU 242300Z 2500/2524 VRB04KT CAVOK BECMG 2504/2506 18010KT 9999 SCT045 BKN080

Decode

Destination Runways

ID Width Length Bearing (true/mag) Surface Threshold Overrun Markings Lighting
13 148 ft / 45 m 11,482 ft / 3,500 m 133.03° / 127.79° CONCRETE 0 ft / 0 m 200 ft / 61 m APP EDGE THRESHOLD ALSF-I
31 148 ft / 45 m 11,482 ft / 3,500 m 313.04° / 307.81° CONCRETE 0 ft / 0 m 200 ft / 61 m PREC-APP EDGE THRESHOLD ALSF-I

Approach Navaids

Runway Type Ident Frequency Range Bearing (true/mag) Slope Elevation
31 DME RNJ 111.70 MHz 18 nm / 33 km - - 2,440 ft / 744 m (AMSL)
31 LOC-ILS RNJ 111.70 MHz 18 nm / 33 km 313.02° / 307.78 ° - 2,505 ft / 764 m (AMSL)
31 GS RNJ 111.70 MHz 10 nm / 19 km 313.07° / 307.83 ° 3.00° 2,440 ft / 744 m (AMSL)

Popular Alternatives